sensor_id;sensor_type;location;lat;lon;timestamp;pressure;altitude;pressure_sealevel;temperature;humidity
27729;BME280;15126;42.186;24.340;2024-02-23T00:01:36;99335.53;;;6.08;66.16
27729;BME280;15126;42.186;24.340;2024-02-23T00:04:01;99330.03;;;5.92;66.39
27729;BME280;15126;42.186;24.340;2024-02-23T00:06:27;99330.16;;;5.89;66.79
27729;BME280;15126;42.186;24.340;2024-02-23T00:08:54;99325.47;;;6.03;66.20
27729;BME280;15126;42.186;24.340;2024-02-23T00:11:20;99325.59;;;5.99;66.96
27729;BME280;15126;42.186;24.340;2024-02-23T00:13:46;99330.47;;;6.06;65.72
27729;BME280;15126;42.186;24.340;2024-02-23T00:16:11;99326.31;;;5.76;66.97
27729;BME280;15126;42.186;24.340;2024-02-23T00:18:37;99330.34;;;5.83;66.99
27729;BME280;15126;42.186;24.340;2024-02-23T00:21:03;99331.09;;;5.86;67.01
27729;BME280;15126;42.186;24.340;2024-02-23T00:23:28;99325.13;;;5.86;66.69
27729;BME280;15126;42.186;24.340;2024-02-23T00:25:54;99323.47;;;5.85;66.68
27729;BME280;15126;42.186;24.340;2024-02-23T00:28:19;99326.78;;;5.88;66.19
27729;BME280;15126;42.186;24.340;2024-02-23T00:30:45;99320.97;;;5.83;66.44
27729;BME280;15126;42.186;24.340;2024-02-23T00:33:10;99322.72;;;5.81;66.87
27729;BME280;15126;42.186;24.340;2024-02-23T00:35:36;99315.34;;;5.74;68.06
27729;BME280;15126;42.186;24.340;2024-02-23T00:38:01;99314.63;;;5.68;67.15
27729;BME280;15126;42.186;24.340;2024-02-23T00:40:28;99302.47;;;5.77;66.77
27729;BME280;15126;42.186;24.340;2024-02-23T00:42:54;99306.00;;;5.72;67.09
27729;BME280;15126;42.186;24.340;2024-02-23T00:45:19;99306.97;;;5.68;67.17
27729;BME280;15126;42.186;24.340;2024-02-23T00:47:45;99313.81;;;5.68;67.63
27729;BME280;15126;42.186;24.340;2024-02-23T00:50:12;99307.31;;;5.58;67.92
27729;BME280;15126;42.186;24.340;2024-02-23T00:52:37;99298.72;;;5.60;68.33
27729;BME280;15126;42.186;24.340;2024-02-23T00:55:03;99301.19;;;5.63;67.36
27729;BME280;15126;42.186;24.340;2024-02-23T00:57:29;99297.00;;;5.61;67.77
27729;BME280;15126;42.186;24.340;2024-02-23T00:59:58;99299.50;;;5.62;67.29
27729;BME280;15126;42.186;24.340;2024-02-23T01:02:24;99302.88;;;5.63;67.81
27729;BME280;15126;42.186;24.340;2024-02-23T01:04:49;99299.84;;;5.51;68.04
27729;BME280;15126;42.186;24.340;2024-02-23T01:07:15;99293.22;;;5.46;67.44
27729;BME280;15126;42.186;24.340;2024-02-23T01:09:40;99281.31;;;5.46;67.36
27729;BME280;15126;42.186;24.340;2024-02-23T01:12:06;99284.69;;;5.47;68.06
27729;BME280;15126;42.186;24.340;2024-02-23T01:14:31;99293.47;;;5.38;68.96
27729;BME280;15126;42.186;24.340;2024-02-23T01:16:57;99291.25;;;5.27;68.88
27729;BME280;15126;42.186;24.340;2024-02-23T01:19:22;99286.31;;;5.23;68.82
27729;BME280;15126;42.186;24.340;2024-02-23T01:21:49;99279.09;;;5.07;69.37
27729;BME280;15126;42.186;24.340;2024-02-23T01:24:21;99276.22;;;4.90;70.50
27729;BME280;15126;42.186;24.340;2024-02-23T01:26:47;99272.31;;;5.08;69.11
27729;BME280;15126;42.186;24.340;2024-02-23T01:29:12;99272.25;;;5.09;68.76
27729;BME280;15126;42.186;24.340;2024-02-23T01:31:37;99270.63;;;5.07;68.58
27729;BME280;15126;42.186;24.340;2024-02-23T01:34:03;99266.72;;;4.95;69.35
27729;BME280;15126;42.186;24.340;2024-02-23T01:36:29;99265.66;;;5.02;69.45
27729;BME280;15126;42.186;24.340;2024-02-23T01:38:54;99274.06;;;5.06;68.64
27729;BME280;15126;42.186;24.340;2024-02-23T01:41:20;99258.06;;;5.01;69.60
27729;BME280;15126;42.186;24.340;2024-02-23T01:43:45;99256.09;;;5.09;68.65
27729;BME280;15126;42.186;24.340;2024-02-23T01:46:11;99260.31;;;5.10;69.34
27729;BME280;15126;42.186;24.340;2024-02-23T01:48:36;99258.84;;;5.03;68.87
27729;BME280;15126;42.186;24.340;2024-02-23T01:51:02;99260.31;;;5.10;68.50
27729;BME280;15126;42.186;24.340;2024-02-23T01:53:28;99261.97;;;5.13;68.27
27729;BME280;15126;42.186;24.340;2024-02-23T01:55:54;99265.28;;;5.15;69.00
27729;BME280;15126;42.186;24.340;2024-02-23T01:58:20;99263.66;;;5.12;68.83
27729;BME280;15126;42.186;24.340;2024-02-23T02:00:46;99261.88;;;5.14;68.76
27729;BME280;15126;42.186;24.340;2024-02-23T02:03:11;99269.69;;;5.09;68.97
27729;BME280;15126;42.186;24.340;2024-02-23T02:05:37;99269.16;;;5.00;69.28
27729;BME280;15126;42.186;24.340;2024-02-23T02:08:03;99268.09;;;5.05;69.12
27729;BME280;15126;42.186;24.340;2024-02-23T02:10:29;99265.88;;;4.95;68.92
27729;BME280;15126;42.186;24.340;2024-02-23T02:12:54;99269.22;;;4.97;69.30
27729;BME280;15126;42.186;24.340;2024-02-23T02:15:20;99269.31;;;4.94;70.17
27729;BME280;15126;42.186;24.340;2024-02-23T02:17:47;99261.03;;;4.87;70.59
27729;BME280;15126;42.186;24.340;2024-02-23T02:20:13;99270.19;;;4.93;69.91
27729;BME280;15126;42.186;24.340;2024-02-23T02:22:39;99276.50;;;4.81;70.33
27729;BME280;15126;42.186;24.340;2024-02-23T02:25:05;99271.50;;;4.76;70.62
27729;BME280;15126;42.186;24.340;2024-02-23T02:27:31;99268.69;;;4.87;68.80
27729;BME280;15126;42.186;24.340;2024-02-23T02:29:57;99280.50;;;4.89;69.31
27729;BME280;15126;42.186;24.340;2024-02-23T02:32:23;99270.47;;;4.83;69.90
27729;BME280;15126;42.186;24.340;2024-02-23T02:34:49;99257.72;;;4.83;70.08
27729;BME280;15126;42.186;24.340;2024-02-23T02:37:14;99264.66;;;4.78;69.65
27729;BME280;15126;42.186;24.340;2024-02-23T02:39:40;99264.09;;;4.68;70.64
27729;BME280;15126;42.186;24.340;2024-02-23T02:42:06;99259.69;;;4.74;69.88
27729;BME280;15126;42.186;24.340;2024-02-23T02:44:31;99253.66;;;4.76;69.90
27729;BME280;15126;42.186;24.340;2024-02-23T02:46:57;99264.56;;;4.83;70.07
27729;BME280;15126;42.186;24.340;2024-02-23T02:49:23;99255.19;;;4.83;69.67
27729;BME280;15126;42.186;24.340;2024-02-23T02:51:49;99262.78;;;4.85;69.33
27729;BME280;15126;42.186;24.340;2024-02-23T02:54:17;99258.88;;;4.73;69.93
27729;BME280;15126;42.186;24.340;2024-02-23T02:56:43;99260.47;;;4.77;69.39
27729;BME280;15126;42.186;24.340;2024-02-23T02:59:10;99281.72;;;4.76;70.04
27729;BME280;15126;42.186;24.340;2024-02-23T03:01:36;99260.84;;;4.63;70.96
27729;BME280;15126;42.186;24.340;2024-02-23T03:04:01;99267.44;;;4.71;69.86
27729;BME280;15126;42.186;24.340;2024-02-23T03:06:27;99271.63;;;4.73;68.94
27729;BME280;15126;42.186;24.340;2024-02-23T03:08:52;99273.81;;;4.56;70.39
27729;BME280;15126;42.186;24.340;2024-02-23T03:11:20;99278.78;;;4.60;70.43
27729;BME280;15126;42.186;24.340;2024-02-23T03:13:45;99278.66;;;4.65;70.12
27729;BME280;15126;42.186;24.340;2024-02-23T03:16:17;99278.69;;;4.63;70.29
27729;BME280;15126;42.186;24.340;2024-02-23T03:18:43;99274.47;;;4.62;70.55
27729;BME280;15126;42.186;24.340;2024-02-23T03:21:09;99269.41;;;4.61;69.96
27729;BME280;15126;42.186;24.340;2024-02-23T03:23:35;99268.78;;;4.53;70.53
27729;BME280;15126;42.186;24.340;2024-02-23T03:26:01;99288.69;;;4.40;71.41
27729;BME280;15126;42.186;24.340;2024-02-23T03:28:27;99293.09;;;4.35;71.23
27729;BME280;15126;42.186;24.340;2024-02-23T03:30:53;99283.41;;;4.15;71.50
27729;BME280;15126;42.186;24.340;2024-02-23T03:33:18;99286.53;;;4.26;71.31
27729;BME280;15126;42.186;24.340;2024-02-23T03:35:43;99295.81;;;4.27;71.31
27729;BME280;15126;42.186;24.340;2024-02-23T03:38:09;99304.41;;;4.23;72.31
27729;BME280;15126;42.186;24.340;2024-02-23T03:40:34;99302.28;;;4.07;72.10
27729;BME280;15126;42.186;24.340;2024-02-23T03:43:01;99296.03;;;3.86;72.76
27729;BME280;15126;42.186;24.340;2024-02-23T03:45:27;99296.13;;;3.83;72.87
27729;BME280;15126;42.186;24.340;2024-02-23T03:47:52;99275.91;;;3.77;72.81
27729;BME280;15126;42.186;24.340;2024-02-23T03:50:18;99302.50;;;3.64;72.61
27729;BME280;15126;42.186;24.340;2024-02-23T03:52:43;99297.09;;;3.78;72.96
27729;BME280;15126;42.186;24.340;2024-02-23T03:55:09;99284.69;;;3.64;73.67
27729;BME280;15126;42.186;24.340;2024-02-23T03:57:34;99285.19;;;3.44;74.11
27729;BME280;15126;42.186;24.340;2024-02-23T04:00:00;99284.94;;;3.55;73.88
27729;BME280;15126;42.186;24.340;2024-02-23T04:02:25;99286.56;;;3.57;73.35
27729;BME280;15126;42.186;24.340;2024-02-23T04:04:51;99292.28;;;3.65;73.20
27729;BME280;15126;42.186;24.340;2024-02-23T04:07:16;99285.50;;;3.66;72.82
27729;BME280;15126;42.186;24.340;2024-02-23T04:09:42;99296.56;;;3.65;73.15
27729;BME280;15126;42.186;24.340;2024-02-23T04:12:07;99289.78;;;3.64;73.14
27729;BME280;15126;42.186;24.340;2024-02-23T04:14:33;99282.84;;;3.71;72.82
27729;BME280;15126;42.186;24.340;2024-02-23T04:17:04;99288.69;;;3.74;72.47
27729;BME280;15126;42.186;24.340;2024-02-23T04:19:30;99288.78;;;3.71;72.98
27729;BME280;15126;42.186;24.340;2024-02-23T04:21:55;99288.97;;;3.62;73.35
27729;BME280;15126;42.186;24.340;2024-02-23T04:24:21;99293.91;;;3.70;72.71
27729;BME280;15126;42.186;24.340;2024-02-23T04:26:49;99293.97;;;3.66;73.30
27729;BME280;15126;42.186;24.340;2024-02-23T04:29:14;99297.22;;;3.73;72.76
27729;BME280;15126;42.186;24.340;2024-02-23T04:31:40;99295.00;;;3.59;72.93
27729;BME280;15126;42.186;24.340;2024-02-23T04:34:05;99297.00;;;3.45;74.08
27729;BME280;15126;42.186;24.340;2024-02-23T04:36:31;99297.59;;;3.58;73.52
27729;BME280;15126;42.186;24.340;2024-02-23T04:38:56;99294.03;;;3.63;73.61
27729;BME280;15126;42.186;24.340;2024-02-23T04:41:22;99295.78;;;3.61;73.01
27729;BME280;15126;42.186;24.340;2024-02-23T04:43:47;99296.69;;;3.59;72.85
27729;BME280;15126;42.186;24.340;2024-02-23T04:46:32;99297.59;;;3.58;72.38
27729;BME280;15126;42.186;24.340;2024-02-23T04:48:59;99288.94;;;3.63;73.01
27729;BME280;15126;42.186;24.340;2024-02-23T04:51:25;99286.44;;;3.62;73.08
27729;BME280;15126;42.186;24.340;2024-02-23T04:53:51;99290.75;;;3.60;73.00
27729;BME280;15126;42.186;24.340;2024-02-23T04:56:16;99299.13;;;3.63;73.72
27729;BME280;15126;42.186;24.340;2024-02-23T04:58:44;99296.59;;;3.63;73.38
27729;BME280;15126;42.186;24.340;2024-02-23T05:01:09;99302.50;;;3.64;72.48
27729;BME280;15126;42.186;24.340;2024-02-23T05:03:36;99298.84;;;3.40;73.34
27729;BME280;15126;42.186;24.340;2024-02-23T05:06:07;99304.09;;;3.32;73.96
27729;BME280;15126;42.186;24.340;2024-02-23T05:08:35;99309.19;;;3.32;74.43
27729;BME280;15126;42.186;24.340;2024-02-23T05:11:03;99301.59;;;3.31;74.69
27729;BME280;15126;42.186;24.340;2024-02-23T05:13:30;99300.84;;;3.27;74.65
27729;BME280;15126;42.186;24.340;2024-02-23T05:15:56;99303.50;;;3.21;75.23
27729;BME280;15126;42.186;24.340;2024-02-23T05:18:28;99303.47;;;3.22;75.10
27729;BME280;15126;42.186;24.340;2024-02-23T05:20:54;99310.91;;;3.32;74.60
27729;BME280;15126;42.186;24.340;2024-02-23T05:23:19;99311.81;;;3.29;74.58
27729;BME280;15126;42.186;24.340;2024-02-23T05:25:45;99332.28;;;3.23;74.92
27729;BME280;15126;42.186;24.340;2024-02-23T05:28:10;99324.00;;;3.13;74.98
27729;BME280;15126;42.186;24.340;2024-02-23T05:30:36;99323.03;;;3.19;74.30
27729;BME280;15126;42.186;24.340;2024-02-23T05:33:02;99314.50;;;3.21;74.51
27729;BME280;15126;42.186;24.340;2024-02-23T05:35:29;99323.88;;;3.19;74.46
27729;BME280;15126;42.186;24.340;2024-02-23T05:37:55;99329.84;;;3.18;74.49
27729;BME280;15126;42.186;24.340;2024-02-23T05:40:21;99339.19;;;3.18;75.02
27729;BME280;15126;42.186;24.340;2024-02-23T05:42:46;99338.34;;;3.17;74.47
27729;BME280;15126;42.186;24.340;2024-02-23T05:45:14;99353.16;;;3.39;73.33
27729;BME280;15126;42.186;24.340;2024-02-23T05:47:43;99345.00;;;3.23;74.71
27729;BME280;15126;42.186;24.340;2024-02-23T05:50:08;99349.03;;;3.32;74.04
27729;BME280;15126;42.186;24.340;2024-02-23T05:52:35;99340.69;;;3.26;74.44
27729;BME280;15126;42.186;24.340;2024-02-23T05:55:02;99347.94;;;3.43;73.58
27729;BME280;15126;42.186;24.340;2024-02-23T05:57:27;99344.28;;;3.55;73.94
27729;BME280;15126;42.186;24.340;2024-02-23T05:59:53;99347.72;;;3.90;73.38
27729;BME280;15126;42.186;24.340;2024-02-23T06:02:19;99355.41;;;3.87;72.90
27729;BME280;15126;42.186;24.340;2024-02-23T06:04:44;99345.41;;;4.14;71.99
27729;BME280;15126;42.186;24.340;2024-02-23T06:07:10;99346.19;;;4.17;70.53
27729;BME280;15126;42.186;24.340;2024-02-23T06:09:36;99341.28;;;4.42;70.00
27729;BME280;15126;42.186;24.340;2024-02-23T06:12:02;99343.19;;;4.65;69.39
27729;BME280;15126;42.186;24.340;2024-02-23T06:14:28;99351.34;;;4.78;69.40
27729;BME280;15126;42.186;24.340;2024-02-23T06:16:53;99334.69;;;4.96;68.56
27729;BME280;15126;42.186;24.340;2024-02-23T06:19:19;99348.53;;;5.17;67.46
27729;BME280;15126;42.186;24.340;2024-02-23T06:21:48;99350.91;;;5.23;67.72
27729;BME280;15126;42.186;24.340;2024-02-23T06:24:15;99353.75;;;5.42;66.56
27729;BME280;15126;42.186;24.340;2024-02-23T06:26:41;99355.78;;;5.31;66.72
27729;BME280;15126;42.186;24.340;2024-02-23T06:29:06;99352.66;;;5.49;65.78
27729;BME280;15126;42.186;24.340;2024-02-23T06:31:34;99347.53;;;5.51;65.76
27729;BME280;15126;42.186;24.340;2024-02-23T06:34:02;99352.44;;;5.84;65.31
27729;BME280;15126;42.186;24.340;2024-02-23T06:36:30;99356.31;;;5.97;65.09
27729;BME280;15126;42.186;24.340;2024-02-23T06:38:55;99355.03;;;6.36;62.98
27729;BME280;15126;42.186;24.340;2024-02-23T06:41:21;99347.78;;;6.23;63.28
27729;BME280;15126;42.186;24.340;2024-02-23T06:43:47;99348.94;;;6.40;62.69
27729;BME280;15126;42.186;24.340;2024-02-23T06:46:13;99350.34;;;6.72;62.48
27729;BME280;15126;42.186;24.340;2024-02-23T06:48:38;99346.13;;;6.95;61.79
27729;BME280;15126;42.186;24.340;2024-02-23T06:51:05;99344.41;;;7.17;59.97
27729;BME280;15126;42.186;24.340;2024-02-23T06:53:34;99346.88;;;7.42;60.69
27729;BME280;15126;42.186;24.340;2024-02-23T06:56:00;99344.63;;;7.34;60.07
27729;BME280;15126;42.186;24.340;2024-02-23T06:58:26;99349.41;;;7.44;60.09
27729;BME280;15126;42.186;24.340;2024-02-23T07:00:52;99348.50;;;7.23;61.06
27729;BME280;15126;42.186;24.340;2024-02-23T07:03:17;99356.91;;;7.48;61.24
27729;BME280;15126;42.186;24.340;2024-02-23T07:05:43;99360.88;;;7.78;58.76
27729;BME280;15126;42.186;24.340;2024-02-23T07:08:12;99355.63;;;7.81;58.64
27729;BME280;15126;42.186;24.340;2024-02-23T07:10:38;99356.72;;;7.95;59.13
27729;BME280;15126;42.186;24.340;2024-02-23T07:13:03;99348.91;;;8.40;58.43
27729;BME280;15126;42.186;24.340;2024-02-23T07:15:31;99345.09;;;8.50;57.25
27729;BME280;15126;42.186;24.340;2024-02-23T07:17:58;99356.69;;;8.59;56.68
27729;BME280;15126;42.186;24.340;2024-02-23T07:20:23;99341.81;;;8.86;56.49
27729;BME280;15126;42.186;24.340;2024-02-23T07:22:49;99348.03;;;8.80;56.27
27729;BME280;15126;42.186;24.340;2024-02-23T07:25:18;99347.16;;;9.19;56.33
27729;BME280;15126;42.186;24.340;2024-02-23T07:27:50;99340.13;;;9.42;55.04
27729;BME280;15126;42.186;24.340;2024-02-23T07:30:16;99345.22;;;9.61;55.63
27729;BME280;15126;42.186;24.340;2024-02-23T07:32:46;99341.38;;;9.69;53.75
27729;BME280;15126;42.186;24.340;2024-02-23T07:35:12;99343.81;;;9.72;53.69
27729;BME280;15126;42.186;24.340;2024-02-23T07:37:37;99339.59;;;9.89;54.39
27729;BME280;15126;42.186;24.340;2024-02-23T07:40:03;99334.53;;;10.05;52.85
27729;BME280;15126;42.186;24.340;2024-02-23T07:42:32;99336.78;;;10.11;53.44
27729;BME280;15126;42.186;24.340;2024-02-23T07:45:03;99338.06;;;10.37;52.97
27729;BME280;15126;42.186;24.340;2024-02-23T07:47:30;99330.53;;;10.67;53.24
27729;BME280;15126;42.186;24.340;2024-02-23T07:49:57;99330.59;;;10.66;52.00
27729;BME280;15126;42.186;24.340;2024-02-23T07:52:22;99330.91;;;10.44;53.41
27729;BME280;15126;42.186;24.340;2024-02-23T07:54:53;99333.22;;;10.48;52.62
27729;BME280;15126;42.186;24.340;2024-02-23T07:57:19;99327.22;;;10.81;52.51
27729;BME280;15126;42.186;24.340;2024-02-23T07:59:50;99331.91;;;11.06;52.21
27729;BME280;15126;42.186;24.340;2024-02-23T08:02:19;99330.00;;;11.10;52.53
27729;BME280;15126;42.186;24.340;2024-02-23T08:04:45;99337.81;;;11.24;52.13
27729;BME280;15126;42.186;24.340;2024-02-23T08:07:13;99326.47;;;11.43;50.37
27729;BME280;15126;42.186;24.340;2024-02-23T08:09:38;99329.78;;;11.60;50.55
27729;BME280;15126;42.186;24.340;2024-02-23T08:12:04;99310.78;;;11.77;51.59
27729;BME280;15126;42.186;24.340;2024-02-23T08:14:32;99317.66;;;11.93;51.05
27729;BME280;15126;42.186;24.340;2024-02-23T08:16:58;99307.19;;;12.10;49.60
27729;BME280;15126;42.186;24.340;2024-02-23T08:19:23;99316.63;;;12.26;48.86
27729;BME280;15126;42.186;24.340;2024-02-23T08:21:49;99317.25;;;12.29;47.49
27729;BME280;15126;42.186;24.340;2024-02-23T08:24:14;99318.00;;;12.31;48.59
27729;BME280;15126;42.186;24.340;2024-02-23T08:26:40;99308.50;;;12.32;49.73
27729;BME280;15126;42.186;24.340;2024-02-23T08:29:13;99313.50;;;12.49;47.87
27729;BME280;15126;42.186;24.340;2024-02-23T08:31:39;99305.19;;;12.44;47.84
27729;BME280;15126;42.186;24.340;2024-02-23T08:34:04;99309.00;;;12.38;47.77
27729;BME280;15126;42.186;24.340;2024-02-23T08:36:32;99298.13;;;12.62;47.93
27729;BME280;15126;42.186;24.340;2024-02-23T08:38:58;99265.56;;;12.45;47.65
27729;BME280;15126;42.186;24.340;2024-02-23T08:41:23;99290.34;;;12.76;47.70
27729;BME280;15126;42.186;24.340;2024-02-23T08:43:51;99278.28;;;12.77;46.35
27729;BME280;15126;42.186;24.340;2024-02-23T08:46:17;99305.38;;;12.70;47.82
27729;BME280;15126;42.186;24.340;2024-02-23T08:48:43;99299.00;;;12.90;47.63
27729;BME280;15126;42.186;24.340;2024-02-23T08:51:09;99287.78;;;13.03;47.41
27729;BME280;15126;42.186;24.340;2024-02-23T08:53:34;99298.19;;;13.16;48.75
27729;BME280;15126;42.186;24.340;2024-02-23T08:56:00;99283.41;;;13.33;46.23
27729;BME280;15126;42.186;24.340;2024-02-23T08:58:28;99274.47;;;13.51;45.15
27729;BME280;15126;42.186;24.340;2024-02-23T09:00:56;99266.88;;;13.48;45.38
27729;BME280;15126;42.186;24.340;2024-02-23T09:03:32;99279.34;;;13.14;46.85
27729;BME280;15126;42.186;24.340;2024-02-23T09:05:57;99282.31;;;13.50;47.91
27729;BME280;15126;42.186;24.340;2024-02-23T09:08:23;99280.38;;;13.53;46.72
27729;BME280;15126;42.186;24.340;2024-02-23T09:10:49;99280.50;;;13.37;46.46
27729;BME280;15126;42.186;24.340;2024-02-23T09:13:15;99272.66;;;13.39;48.59
27729;BME280;15126;42.186;24.340;2024-02-23T09:15:40;99270.66;;;13.57;45.65
27729;BME280;15126;42.186;24.340;2024-02-23T09:18:08;99267.72;;;13.36;46.16
27729;BME280;15126;42.186;24.340;2024-02-23T09:20:37;99272.91;;;13.49;47.60
27729;BME280;15126;42.186;24.340;2024-02-23T09:23:03;99274.41;;;13.66;46.71
27729;BME280;15126;42.186;24.340;2024-02-23T09:25:28;99261.91;;;13.85;46.36
27729;BME280;15126;42.186;24.340;2024-02-23T09:27:57;99258.69;;;13.94;45.70
27729;BME280;15126;42.186;24.340;2024-02-23T09:30:23;99262.94;;;14.21;46.20
27729;BME280;15126;42.186;24.340;2024-02-23T09:32:48;99260.78;;;14.15;45.29
27729;BME280;15126;42.186;24.340;2024-02-23T09:35:14;99259.22;;;14.25;45.52
27729;BME280;15126;42.186;24.340;2024-02-23T09:37:39;99262.31;;;14.43;46.69
27729;BME280;15126;42.186;24.340;2024-02-23T09:40:06;99263.16;;;14.43;44.86
27729;BME280;15126;42.186;24.340;2024-02-23T09:42:34;99249.56;;;14.53;43.46
27729;BME280;15126;42.186;24.340;2024-02-23T09:45:03;99252.56;;;14.46;44.59
27729;BME280;15126;42.186;24.340;2024-02-23T09:47:31;99255.50;;;14.29;43.19
27729;BME280;15126;42.186;24.340;2024-02-23T09:49:57;99240.06;;;14.15;43.68
27729;BME280;15126;42.186;24.340;2024-02-23T09:52:23;99244.84;;;14.21;45.68
27729;BME280;15126;42.186;24.340;2024-02-23T09:54:49;99226.78;;;14.32;45.96
27729;BME280;15126;42.186;24.340;2024-02-23T09:57:15;99247.59;;;14.31;45.14
27729;BME280;15126;42.186;24.340;2024-02-23T09:59:48;99232.78;;;14.33;44.85
27729;BME280;15126;42.186;24.340;2024-02-23T10:02:15;99241.13;;;14.12;45.40
27729;BME280;15126;42.186;24.340;2024-02-23T10:04:42;99232.53;;;14.24;45.95
27729;BME280;15126;42.186;24.340;2024-02-23T10:07:15;99232.56;;;14.49;44.50
27729;BME280;15126;42.186;24.340;2024-02-23T10:09:41;99226.78;;;14.58;44.39
27729;BME280;15126;42.186;24.340;2024-02-23T10:12:07;99229.25;;;14.59;45.01
27729;BME280;15126;42.186;24.340;2024-02-23T10:14:33;99229.41;;;14.82;44.35
27729;BME280;15126;42.186;24.340;2024-02-23T10:16:58;99226.00;;;14.69;45.26
27729;BME280;15126;42.186;24.340;2024-02-23T10:19:27;99228.41;;;14.72;44.17
27729;BME280;15126;42.186;24.340;2024-02-23T10:21:55;99219.69;;;14.23;46.11
27729;BME280;15126;42.186;24.340;2024-02-23T10:24:28;99223.41;;;14.06;47.42
27729;BME280;15126;42.186;24.340;2024-02-23T10:26:53;99217.50;;;14.17;47.33
27729;BME280;15126;42.186;24.340;2024-02-23T10:29:20;99216.69;;;14.16;48.65
27729;BME280;15126;42.186;24.340;2024-02-23T10:31:47;99213.00;;;14.44;46.63
27729;BME280;15126;42.186;24.340;2024-02-23T10:34:15;99209.69;;;14.55;45.21
27729;BME280;15126;42.186;24.340;2024-02-23T10:36:48;99210.91;;;14.62;44.86
27729;BME280;15126;42.186;24.340;2024-02-23T10:39:16;99205.00;;;14.48;45.01
27729;BME280;15126;42.186;24.340;2024-02-23T10:41:56;99199.69;;;14.75;46.01
27729;BME280;15126;42.186;24.340;2024-02-23T10:44:24;99193.28;;;14.68;43.71
27729;BME280;15126;42.186;24.340;2024-02-23T10:46:50;99204.88;;;14.75;43.75
27729;BME280;15126;42.186;24.340;2024-02-23T10:49:17;99202.84;;;14.67;44.94
27729;BME280;15126;42.186;24.340;2024-02-23T10:51:47;99194.72;;;14.96;43.36
27729;BME280;15126;42.186;24.340;2024-02-23T10:54:15;99188.09;;;14.92;44.14
27729;BME280;15126;42.186;24.340;2024-02-23T10:56:43;99182.22;;;14.90;44.50
27729;BME280;15126;42.186;24.340;2024-02-23T10:59:14;99185.00;;;15.11;44.80
27729;BME280;15126;42.186;24.340;2024-02-23T11:01:42;99170.41;;;15.10;43.92
27729;BME280;15126;42.186;24.340;2024-02-23T11:04:09;99173.00;;;15.10;43.88
27729;BME280;15126;42.186;24.340;2024-02-23T11:06:35;99168.09;;;15.18;43.56
27729;BME280;15126;42.186;24.340;2024-02-23T11:09:07;99173.81;;;15.45;43.96
27729;BME280;15126;42.186;24.340;2024-02-23T11:11:34;99175.38;;;15.59;44.25
27729;BME280;15126;42.186;24.340;2024-02-23T11:14:02;99159.22;;;15.67;42.87
27729;BME280;15126;42.186;24.340;2024-02-23T11:16:31;99151.19;;;15.70;42.99
27729;BME280;15126;42.186;24.340;2024-02-23T11:19:07;99141.34;;;15.86;43.15
27729;BME280;15126;42.186;24.340;2024-02-23T11:21:38;99149.34;;;16.06;42.73
27729;BME280;15126;42.186;24.340;2024-02-23T11:24:04;99151.63;;;15.88;42.35
27729;BME280;15126;42.186;24.340;2024-02-23T11:26:30;99134.97;;;16.13;40.60
27729;BME280;15126;42.186;24.340;2024-02-23T11:29:09;99141.81;;;16.14;41.46
27729;BME280;15126;42.186;24.340;2024-02-23T11:31:38;99132.72;;;16.20;40.77
27729;BME280;15126;42.186;24.340;2024-02-23T11:34:09;99129.06;;;16.11;40.67
27729;BME280;15126;42.186;24.340;2024-02-23T11:36:35;99124.81;;;16.10;42.79
27729;BME280;15126;42.186;24.340;2024-02-23T11:39:02;99125.75;;;16.20;41.13
27729;BME280;15126;42.186;24.340;2024-02-23T11:41:31;99113.47;;;16.22;40.78
27729;BME280;15126;42.186;24.340;2024-02-23T11:43:57;99119.81;;;16.29;40.61
27729;BME280;15126;42.186;24.340;2024-02-23T11:46:25;99113.09;;;16.38;40.32
27729;BME280;15126;42.186;24.340;2024-02-23T11:48:51;99104.69;;;16.46;40.18
27729;BME280;15126;42.186;24.340;2024-02-23T11:51:25;99103.31;;;16.31;38.49
27729;BME280;15126;42.186;24.340;2024-02-23T11:53:55;99103.78;;;16.24;38.45
27729;BME280;15126;42.186;24.340;2024-02-23T11:56:23;99111.16;;;15.97;40.18
27729;BME280;15126;42.186;24.340;2024-02-23T11:58:49;99117.50;;;16.15;39.44
27729;BME280;15126;42.186;24.340;2024-02-23T12:01:14;99105.94;;;16.19;39.43
27729;BME280;15126;42.186;24.340;2024-02-23T12:03:43;99107.09;;;16.26;37.99
27729;BME280;15126;42.186;24.340;2024-02-23T12:06:10;99101.63;;;16.29;39.40
27729;BME280;15126;42.186;24.340;2024-02-23T12:08:36;99108.66;;;16.18;39.79
27729;BME280;15126;42.186;24.340;2024-02-23T12:11:08;99095.03;;;16.25;38.58
27729;BME280;15126;42.186;24.340;2024-02-23T12:13:35;99089.72;;;16.38;38.67
27729;BME280;15126;42.186;24.340;2024-02-23T12:16:02;99076.59;;;16.83;38.34
27729;BME280;15126;42.186;24.340;2024-02-23T12:18:28;99078.91;;;16.86;39.01
27729;BME280;15126;42.186;24.340;2024-02-23T12:21:07;99066.78;;;16.87;38.44
27729;BME280;15126;42.186;24.340;2024-02-23T12:23:45;99076.19;;;17.30;37.71
27729;BME280;15126;42.186;24.340;2024-02-23T12:26:12;99065.69;;;17.41;37.52
27729;BME280;15126;42.186;24.340;2024-02-23T12:28:47;99059.13;;;17.78;36.93
27729;BME280;15126;42.186;24.340;2024-02-23T12:31:13;99071.56;;;17.95;37.35
27729;BME280;15126;42.186;24.340;2024-02-23T12:33:39;99070.59;;;17.35;37.49
27729;BME280;15126;42.186;24.340;2024-02-23T12:36:06;99062.13;;;17.12;36.90
27729;BME280;15126;42.186;24.340;2024-02-23T12:38:33;99063.44;;;17.27;37.14
27729;BME280;15126;42.186;24.340;2024-02-23T12:41:00;99064.13;;;17.08;37.79
27729;BME280;15126;42.186;24.340;2024-02-23T12:43:26;99060.75;;;16.75;38.70
27729;BME280;15126;42.186;24.340;2024-02-23T12:45:55;99067.16;;;16.71;38.49
27729;BME280;15126;42.186;24.340;2024-02-23T12:48:21;99050.91;;;16.58;38.62
27729;BME280;15126;42.186;24.340;2024-02-23T12:50:48;99055.69;;;16.74;39.32
27729;BME280;15126;42.186;24.340;2024-02-23T12:53:33;99055.19;;;16.80;38.96